sensor_id;sensor_type;location;lat;lon;timestamp;temperature;humidity
23087;DHT22;11712;51.134;4.156;2022-07-23T00:00:05;16.80;99.90
23087;DHT22;11712;51.134;4.156;2022-07-23T00:02:31;16.80;99.90
23087;DHT22;11712;51.134;4.156;2022-07-23T00:04:57;16.90;99.90
23087;DHT22;11712;51.134;4.156;2022-07-23T00:07:22;17.00;99.90
23087;DHT22;11712;51.134;4.156;2022-07-23T00:09:48;17.00;99.90
23087;DHT22;11712;51.134;4.156;2022-07-23T00:12:14;17.00;99.90
23087;DHT22;11712;51.134;4.156;2022-07-23T00:14:39;16.90;99.90
23087;DHT22;11712;51.134;4.156;2022-07-23T00:17:05;16.90;99.90
23087;DHT22;11712;51.134;4.156;2022-07-23T00:19:31;16.90;99.90
23087;DHT22;11712;51.134;4.156;2022-07-23T00:21:56;16.90;99.90
23087;DHT22;11712;51.134;4.156;2022-07-23T00:24:22;16.90;99.90
23087;DHT22;11712;51.134;4.156;2022-07-23T00:26:48;17.00;99.90
23087;DHT22;11712;51.134;4.156;2022-07-23T00:29:13;17.10;99.90
23087;DHT22;11712;51.134;4.156;2022-07-23T00:31:39;17.10;99.90
23087;DHT22;11712;51.134;4.156;2022-07-23T00:34:05;17.00;99.90
23087;DHT22;11712;51.134;4.156;2022-07-23T00:36:30;17.00;99.90
23087;DHT22;11712;51.134;4.156;2022-07-23T00:38:59;17.00;99.90
23087;DHT22;11712;51.134;4.156;2022-07-23T00:41:24;17.00;99.90
23087;DHT22;11712;51.134;4.156;2022-07-23T00:43:50;16.90;99.90
23087;DHT22;11712;51.134;4.156;2022-07-23T00:46:20;16.80;99.90
23087;DHT22;11712;51.134;4.156;2022-07-23T00:48:46;16.70;99.90
23087;DHT22;11712;51.134;4.156;2022-07-23T00:51:11;16.70;99.90
23087;DHT22;11712;51.134;4.156;2022-07-23T00:53:37;16.60;99.90
23087;DHT22;11712;51.134;4.156;2022-07-23T00:56:03;16.50;99.90
23087;DHT22;11712;51.134;4.156;2022-07-23T00:58:29;16.50;99.90
23087;DHT22;11712;51.134;4.156;2022-07-23T01:00:54;16.40;99.90
23087;DHT22;11712;51.134;4.156;2022-07-23T01:03:20;16.40;99.90
23087;DHT22;11712;51.134;4.156;2022-07-23T01:05:46;16.40;99.90
23087;DHT22;11712;51.134;4.156;2022-07-23T01:08:12;16.40;99.90
23087;DHT22;11712;51.134;4.156;2022-07-23T01:10:38;16.30;99.90
23087;DHT22;11712;51.134;4.156;2022-07-23T01:13:10;16.20;99.90
23087;DHT22;11712;51.134;4.156;2022-07-23T01:15:37;16.10;99.90
23087;DHT22;11712;51.134;4.156;2022-07-23T01:18:04;16.10;99.90
23087;DHT22;11712;51.134;4.156;2022-07-23T01:20:30;16.20;99.90
23087;DHT22;11712;51.134;4.156;2022-07-23T01:22:56;16.30;99.90
23087;DHT22;11712;51.134;4.156;2022-07-23T01:25:22;16.30;99.90
23087;DHT22;11712;51.134;4.156;2022-07-23T01:27:48;16.30;99.90
23087;DHT22;11712;51.134;4.156;2022-07-23T01:30:14;16.20;99.90
23087;DHT22;11712;51.134;4.156;2022-07-23T01:32:40;16.20;99.90
23087;DHT22;11712;51.134;4.156;2022-07-23T01:35:07;16.10;99.90
23087;DHT22;11712;51.134;4.156;2022-07-23T01:37:33;16.10;99.90
23087;DHT22;11712;51.134;4.156;2022-07-23T01:39:58;16.00;99.90
23087;DHT22;11712;51.134;4.156;2022-07-23T01:42:25;16.00;99.90
23087;DHT22;11712;51.134;4.156;2022-07-23T01:44:50;16.00;99.90
23087;DHT22;11712;51.134;4.156;2022-07-23T01:47:16;16.20;99.90
23087;DHT22;11712;51.134;4.156;2022-07-23T01:49:42;16.20;99.90
23087;DHT22;11712;51.134;4.156;2022-07-23T01:52:08;16.30;99.90
23087;DHT22;11712;51.134;4.156;2022-07-23T01:54:37;16.20;99.90
23087;DHT22;11712;51.134;4.156;2022-07-23T01:57:03;16.20;99.90
23087;DHT22;11712;51.134;4.156;2022-07-23T01:59:29;16.20;99.90
23087;DHT22;11712;51.134;4.156;2022-07-23T02:01:55;16.20;99.90
23087;DHT22;11712;51.134;4.156;2022-07-23T02:04:22;16.30;99.90
23087;DHT22;11712;51.134;4.156;2022-07-23T02:06:49;16.20;99.90
23087;DHT22;11712;51.134;4.156;2022-07-23T02:09:14;16.20;99.90
23087;DHT22;11712;51.134;4.156;2022-07-23T02:11:40;16.20;99.90
23087;DHT22;11712;51.134;4.156;2022-07-23T02:14:06;16.20;99.90
23087;DHT22;11712;51.134;4.156;2022-07-23T02:16:32;16.10;99.90
23087;DHT22;11712;51.134;4.156;2022-07-23T02:18:57;16.00;99.90
23087;DHT22;11712;51.134;4.156;2022-07-23T02:21:23;15.90;99.90
23087;DHT22;11712;51.134;4.156;2022-07-23T02:23:49;15.80;99.90
23087;DHT22;11712;51.134;4.156;2022-07-23T02:26:14;15.70;99.90
23087;DHT22;11712;51.134;4.156;2022-07-23T02:28:40;15.70;99.90
23087;DHT22;11712;51.134;4.156;2022-07-23T02:31:06;15.60;99.90
23087;DHT22;11712;51.134;4.156;2022-07-23T02:33:32;15.60;99.90
23087;DHT22;11712;51.134;4.156;2022-07-23T02:35:58;15.70;99.90
23087;DHT22;11712;51.134;4.156;2022-07-23T02:38:24;15.70;99.90
23087;DHT22;11712;51.134;4.156;2022-07-23T02:40:50;15.80;99.90
23087;DHT22;11712;51.134;4.156;2022-07-23T02:43:15;15.80;99.90
23087;DHT22;11712;51.134;4.156;2022-07-23T02:45:41;15.80;99.90
23087;DHT22;11712;51.134;4.156;2022-07-23T02:48:07;15.80;99.90
23087;DHT22;11712;51.134;4.156;2022-07-23T02:50:32;15.80;99.90
23087;DHT22;11712;51.134;4.156;2022-07-23T02:52:58;15.80;99.90
23087;DHT22;11712;51.134;4.156;2022-07-23T02:55:24;15.90;99.90
23087;DHT22;11712;51.134;4.156;2022-07-23T02:57:50;15.90;99.90
23087;DHT22;11712;51.134;4.156;2022-07-23T03:00:15;15.80;99.90
23087;DHT22;11712;51.134;4.156;2022-07-23T03:02:41;15.70;99.90
23087;DHT22;11712;51.134;4.156;2022-07-23T03:05:07;15.70;99.90
23087;DHT22;11712;51.134;4.156;2022-07-23T03:07:33;15.80;99.90
23087;DHT22;11712;51.134;4.156;2022-07-23T03:09:58;15.90;99.90
23087;DHT22;11712;51.134;4.156;2022-07-23T03:12:24;15.80;99.90
23087;DHT22;11712;51.134;4.156;2022-07-23T03:14:50;15.90;99.90
23087;DHT22;11712;51.134;4.156;2022-07-23T03:17:15;15.90;99.90
23087;DHT22;11712;51.134;4.156;2022-07-23T03:19:41;15.80;99.90
23087;DHT22;11712;51.134;4.156;2022-07-23T03:22:07;15.90;99.90
23087;DHT22;11712;51.134;4.156;2022-07-23T03:24:32;15.60;99.90
23087;DHT22;11712;51.134;4.156;2022-07-23T03:27:17;15.50;99.90
23087;DHT22;11712;51.134;4.156;2022-07-23T03:29:42;15.50;99.90
23087;DHT22;11712;51.134;4.156;2022-07-23T03:32:08;15.50;99.90
23087;DHT22;11712;51.134;4.156;2022-07-23T03:34:34;15.50;99.90
23087;DHT22;11712;51.134;4.156;2022-07-23T03:36:59;15.50;99.90
23087;DHT22;11712;51.134;4.156;2022-07-23T03:39:25;15.60;99.90
23087;DHT22;11712;51.134;4.156;2022-07-23T03:41:51;15.60;99.90
23087;DHT22;11712;51.134;4.156;2022-07-23T03:44:16;15.60;99.90
23087;DHT22;11712;51.134;4.156;2022-07-23T03:46:42;15.60;99.90
23087;DHT22;11712;51.134;4.156;2022-07-23T03:49:07;15.30;99.90
23087;DHT22;11712;51.134;4.156;2022-07-23T03:51:33;15.20;99.90
23087;DHT22;11712;51.134;4.156;2022-07-23T03:53:59;15.20;99.90
23087;DHT22;11712;51.134;4.156;2022-07-23T03:56:24;15.10;99.90
23087;DHT22;11712;51.134;4.156;2022-07-23T03:58:51;15.00;99.90
23087;DHT22;11712;51.134;4.156;2022-07-23T04:01:17;15.10;99.90
23087;DHT22;11712;51.134;4.156;2022-07-23T04:03:42;15.20;99.90
23087;DHT22;11712;51.134;4.156;2022-07-23T04:06:08;15.20;99.90
23087;DHT22;11712;51.134;4.156;2022-07-23T04:08:34;15.10;99.90
23087;DHT22;11712;51.134;4.156;2022-07-23T04:10:59;14.90;99.90
23087;DHT22;11712;51.134;4.156;2022-07-23T04:13:25;14.90;99.90
23087;DHT22;11712;51.134;4.156;2022-07-23T04:15:51;14.90;99.90
23087;DHT22;11712;51.134;4.156;2022-07-23T04:18:17;15.10;99.90
23087;DHT22;11712;51.134;4.156;2022-07-23T04:20:44;15.20;99.90
23087;DHT22;11712;51.134;4.156;2022-07-23T04:23:10;15.30;99.90
23087;DHT22;11712;51.134;4.156;2022-07-23T04:25:36;15.40;99.90
23087;DHT22;11712;51.134;4.156;2022-07-23T04:28:01;15.30;99.90
23087;DHT22;11712;51.134;4.156;2022-07-23T04:30:27;15.40;99.90
23087;DHT22;11712;51.134;4.156;2022-07-23T04:32:53;15.40;99.90
23087;DHT22;11712;51.134;4.156;2022-07-23T04:35:19;15.60;99.90
23087;DHT22;11712;51.134;4.156;2022-07-23T04:37:45;15.70;99.90
23087;DHT22;11712;51.134;4.156;2022-07-23T04:40:11;15.80;99.90
23087;DHT22;11712;51.134;4.156;2022-07-23T04:42:37;15.70;99.90
23087;DHT22;11712;51.134;4.156;2022-07-23T04:45:03;15.70;99.90
23087;DHT22;11712;51.134;4.156;2022-07-23T04:47:30;15.70;99.90
23087;DHT22;11712;51.134;4.156;2022-07-23T04:49:56;15.70;99.90
23087;DHT22;11712;51.134;4.156;2022-07-23T04:52:22;15.80;99.90
23087;DHT22;11712;51.134;4.156;2022-07-23T04:54:48;15.80;99.90
23087;DHT22;11712;51.134;4.156;2022-07-23T04:57:13;15.80;99.90
23087;DHT22;11712;51.134;4.156;2022-07-23T04:59:39;15.90;99.90
23087;DHT22;11712;51.134;4.156;2022-07-23T05:02:05;15.90;99.90
23087;DHT22;11712;51.134;4.156;2022-07-23T05:04:30;16.00;99.90
23087;DHT22;11712;51.134;4.156;2022-07-23T05:06:57;16.20;99.90
23087;DHT22;11712;51.134;4.156;2022-07-23T05:09:23;16.40;99.90
23087;DHT22;11712;51.134;4.156;2022-07-23T05:11:49;16.40;99.90
23087;DHT22;11712;51.134;4.156;2022-07-23T05:14:14;16.20;99.90
23087;DHT22;11712;51.134;4.156;2022-07-23T05:16:40;16.20;99.90
23087;DHT22;11712;51.134;4.156;2022-07-23T05:19:06;16.50;99.90
23087;DHT22;11712;51.134;4.156;2022-07-23T05:21:32;16.70;99.90
23087;DHT22;11712;51.134;4.156;2022-07-23T05:23:58;17.00;99.90
23087;DHT22;11712;51.134;4.156;2022-07-23T05:26:23;17.10;99.90
23087;DHT22;11712;51.134;4.156;2022-07-23T05:28:50;17.20;99.90
23087;DHT22;11712;51.134;4.156;2022-07-23T05:31:16;17.20;99.90
23087;DHT22;11712;51.134;4.156;2022-07-23T05:33:42;17.30;99.90
23087;DHT22;11712;51.134;4.156;2022-07-23T05:36:08;17.50;99.90
23087;DHT22;11712;51.134;4.156;2022-07-23T05:38:33;17.70;99.90
23087;DHT22;11712;51.134;4.156;2022-07-23T05:40:59;17.80;99.90
23087;DHT22;11712;51.134;4.156;2022-07-23T05:43:25;17.90;99.90
23087;DHT22;11712;51.134;4.156;2022-07-23T05:45:51;18.00;99.90
23087;DHT22;11712;51.134;4.156;2022-07-23T05:48:17;18.10;99.90
23087;DHT22;11712;51.134;4.156;2022-07-23T05:50:43;18.40;99.90
23087;DHT22;11712;51.134;4.156;2022-07-23T05:53:09;18.50;99.90
23087;DHT22;11712;51.134;4.156;2022-07-23T05:55:34;18.60;99.90
23087;DHT22;11712;51.134;4.156;2022-07-23T05:58:00;18.70;99.90
23087;DHT22;11712;51.134;4.156;2022-07-23T06:00:26;18.80;99.90
23087;DHT22;11712;51.134;4.156;2022-07-23T06:02:52;18.60;99.90
23087;DHT22;11712;51.134;4.156;2022-07-23T06:05:18;18.60;99.90
23087;DHT22;11712;51.134;4.156;2022-07-23T06:07:44;18.20;99.90
23087;DHT22;11712;51.134;4.156;2022-07-23T06:10:10;18.20;99.90
23087;DHT22;11712;51.134;4.156;2022-07-23T06:12:36;18.00;99.90
23087;DHT22;11712;51.134;4.156;2022-07-23T06:15:03;18.00;99.90
23087;DHT22;11712;51.134;4.156;2022-07-23T06:17:29;18.10;99.90
23087;DHT22;11712;51.134;4.156;2022-07-23T06:19:55;18.30;99.90
23087;DHT22;11712;51.134;4.156;2022-07-23T06:22:22;18.40;99.90
23087;DHT22;11712;51.134;4.156;2022-07-23T06:24:48;18.60;99.90
23087;DHT22;11712;51.134;4.156;2022-07-23T06:27:14;18.70;99.90
23087;DHT22;11712;51.134;4.156;2022-07-23T06:29:40;18.50;99.90
23087;DHT22;11712;51.134;4.156;2022-07-23T06:32:06;18.50;99.90
23087;DHT22;11712;51.134;4.156;2022-07-23T06:34:33;18.60;99.90
23087;DHT22;11712;51.134;4.156;2022-07-23T06:36:59;18.60;99.90
23087;DHT22;11712;51.134;4.156;2022-07-23T06:39:25;18.70;99.90
23087;DHT22;11712;51.134;4.156;2022-07-23T06:41:51;18.90;99.90
23087;DHT22;11712;51.134;4.156;2022-07-23T06:44:16;19.10;99.90
23087;DHT22;11712;51.134;4.156;2022-07-23T06:46:42;19.20;99.90
23087;DHT22;11712;51.134;4.156;2022-07-23T06:49:08;19.40;99.90
23087;DHT22;11712;51.134;4.156;2022-07-23T06:51:34;19.30;99.90
23087;DHT22;11712;51.134;4.156;2022-07-23T06:54:00;19.10;99.90
23087;DHT22;11712;51.134;4.156;2022-07-23T06:56:25;19.10;99.90
23087;DHT22;11712;51.134;4.156;2022-07-23T06:58:51;19.10;99.90
23087;DHT22;11712;51.134;4.156;2022-07-23T07:01:17;19.30;99.90
23087;DHT22;11712;51.134;4.156;2022-07-23T07:03:42;19.30;99.90
23087;DHT22;11712;51.134;4.156;2022-07-23T07:06:08;19.30;99.90
23087;DHT22;11712;51.134;4.156;2022-07-23T07:08:34;19.50;99.90
23087;DHT22;11712;51.134;4.156;2022-07-23T07:11:00;19.50;99.90
23087;DHT22;11712;51.134;4.156;2022-07-23T07:13:26;19.50;99.90
23087;DHT22;11712;51.134;4.156;2022-07-23T07:15:51;19.50;99.90
23087;DHT22;11712;51.134;4.156;2022-07-23T07:18:17;19.50;99.90
23087;DHT22;11712;51.134;4.156;2022-07-23T07:20:42;19.80;99.90
23087;DHT22;11712;51.134;4.156;2022-07-23T07:23:08;19.90;99.90
23087;DHT22;11712;51.134;4.156;2022-07-23T07:25:34;20.10;99.90
23087;DHT22;11712;51.134;4.156;2022-07-23T07:28:00;20.10;99.90
23087;DHT22;11712;51.134;4.156;2022-07-23T07:30:25;20.00;99.90
23087;DHT22;11712;51.134;4.156;2022-07-23T07:32:51;19.90;99.90
23087;DHT22;11712;51.134;4.156;2022-07-23T07:35:17;19.90;99.90
23087;DHT22;11712;51.134;4.156;2022-07-23T07:37:42;20.00;99.90
23087;DHT22;11712;51.134;4.156;2022-07-23T07:40:08;20.10;99.90
23087;DHT22;11712;51.134;4.156;2022-07-23T07:42:34;20.20;99.90
23087;DHT22;11712;51.134;4.156;2022-07-23T07:45:00;20.50;99.90
23087;DHT22;11712;51.134;4.156;2022-07-23T07:47:26;20.60;99.90
23087;DHT22;11712;51.134;4.156;2022-07-23T07:49:51;20.50;99.90
23087;DHT22;11712;51.134;4.156;2022-07-23T07:52:17;20.70;99.90
23087;DHT22;11712;51.134;4.156;2022-07-23T07:54:43;20.70;99.90
23087;DHT22;11712;51.134;4.156;2022-07-23T07:57:09;20.80;99.90
23087;DHT22;11712;51.134;4.156;2022-07-23T07:59:34;21.00;99.90
23087;DHT22;11712;51.134;4.156;2022-07-23T08:02:00;21.00;99.90
23087;DHT22;11712;51.134;4.156;2022-07-23T08:04:26;21.10;99.90
23087;DHT22;11712;51.134;4.156;2022-07-23T08:06:52;21.20;99.90
23087;DHT22;11712;51.134;4.156;2022-07-23T08:09:17;21.20;99.90
23087;DHT22;11712;51.134;4.156;2022-07-23T08:11:43;21.40;99.90
23087;DHT22;11712;51.134;4.156;2022-07-23T08:14:09;21.50;99.90
23087;DHT22;11712;51.134;4.156;2022-07-23T08:16:36;21.70;99.90
23087;DHT22;11712;51.134;4.156;2022-07-23T08:19:02;21.90;99.90
23087;DHT22;11712;51.134;4.156;2022-07-23T08:21:27;21.80;99.90
23087;DHT22;11712;51.134;4.156;2022-07-23T08:23:53;21.50;99.90
23087;DHT22;11712;51.134;4.156;2022-07-23T08:26:19;21.50;99.90
23087;DHT22;11712;51.134;4.156;2022-07-23T08:28:44;21.20;99.90
23087;DHT22;11712;51.134;4.156;2022-07-23T08:31:10;21.40;99.90
23087;DHT22;11712;51.134;4.156;2022-07-23T08:33:37;21.40;99.90
23087;DHT22;11712;51.134;4.156;2022-07-23T08:36:04;21.60;99.90
23087;DHT22;11712;51.134;4.156;2022-07-23T08:38:31;21.70;99.90
23087;DHT22;11712;51.134;4.156;2022-07-23T08:40:57;22.00;99.90
23087;DHT22;11712;51.134;4.156;2022-07-23T08:43:26;22.10;99.90
23087;DHT22;11712;51.134;4.156;2022-07-23T08:45:54;21.70;99.90
23087;DHT22;11712;51.134;4.156;2022-07-23T08:48:23;22.10;99.90
23087;DHT22;11712;51.134;4.156;2022-07-23T08:50:51;22.00;99.90
23087;DHT22;11712;51.134;4.156;2022-07-23T08:53:19;22.00;99.90
23087;DHT22;11712;51.134;4.156;2022-07-23T08:55:46;22.00;99.90
23087;DHT22;11712;51.134;4.156;2022-07-23T08:58:13;22.30;99.90
23087;DHT22;11712;51.134;4.156;2022-07-23T09:00:39;22.70;99.90
23087;DHT22;11712;51.134;4.156;2022-07-23T09:03:05;22.80;99.90
23087;DHT22;11712;51.134;4.156;2022-07-23T09:05:30;22.60;99.90
23087;DHT22;11712;51.134;4.156;2022-07-23T09:08:09;22.60;99.90
23087;DHT22;11712;51.134;4.156;2022-07-23T09:10:57;22.70;99.90
23087;DHT22;11712;51.134;4.156;2022-07-23T09:13:38;23.00;99.90
23087;DHT22;11712;51.134;4.156;2022-07-23T09:16:06;23.50;99.90
23087;DHT22;11712;51.134;4.156;2022-07-23T09:18:38;23.20;99.90
23087;DHT22;11712;51.134;4.156;2022-07-23T09:21:11;23.20;99.90
23087;DHT22;11712;51.134;4.156;2022-07-23T09:23:49;23.60;99.90
23087;DHT22;11712;51.134;4.156;2022-07-23T09:26:22;23.50;99.90
23087;DHT22;11712;51.134;4.156;2022-07-23T09:29:12;23.80;99.90
23087;DHT22;11712;51.134;4.156;2022-07-23T09:31:55;23.80;99.90
23087;DHT22;11712;51.134;4.156;2022-07-23T09:34:29;23.60;99.90
23087;DHT22;11712;51.134;4.156;2022-07-23T09:37:17;23.30;99.90
23087;DHT22;11712;51.134;4.156;2022-07-23T09:39:44;23.20;99.90
23087;DHT22;11712;51.134;4.156;2022-07-23T09:42:28;23.00;99.90
23087;DHT22;11712;51.134;4.156;2022-07-23T09:44:54;22.90;99.90
23087;DHT22;11712;51.134;4.156;2022-07-23T09:47:21;22.80;99.90
23087;DHT22;11712;51.134;4.156;2022-07-23T09:50:08;22.60;99.90
23087;DHT22;11712;51.134;4.156;2022-07-23T09:52:47;22.70;99.90
23087;DHT22;11712;51.134;4.156;2022-07-23T09:55:14;23.00;99.90
23087;DHT22;11712;51.134;4.156;2022-07-23T09:57:41;23.30;99.90
23087;DHT22;11712;51.134;4.156;2022-07-23T10:00:09;23.50;99.90
23087;DHT22;11712;51.134;4.156;2022-07-23T10:02:37;23.60;99.90
23087;DHT22;11712;51.134;4.156;2022-07-23T10:05:03;23.30;99.90
23087;DHT22;11712;51.134;4.156;2022-07-23T10:07:32;23.30;99.90
23087;DHT22;11712;51.134;4.156;2022-07-23T10:10:00;23.50;99.90
23087;DHT22;11712;51.134;4.156;2022-07-23T10:12:26;23.50;99.90
23087;DHT22;11712;51.134;4.156;2022-07-23T10:15:05;23.70;99.90
23087;DHT22;11712;51.134;4.156;2022-07-23T10:17:35;23.40;99.90
23087;DHT22;11712;51.134;4.156;2022-07-23T10:20:01;23.60;99.90
23087;DHT22;11712;51.134;4.156;2022-07-23T10:22:31;23.50;99.90
23087;DHT22;11712;51.134;4.156;2022-07-23T10:25:17;23.60;99.90
23087;DHT22;11712;51.134;4.156;2022-07-23T10:31:14;24.00;99.90
23087;DHT22;11712;51.134;4.156;2022-07-23T10:36:42;24.70;99.90
23087;DHT22;11712;51.134;4.156;2022-07-23T10:39:22;24.60;99.90
23087;DHT22;11712;51.134;4.156;2022-07-23T10:41:50;24.20;99.90
23087;DHT22;11712;51.134;4.156;2022-07-23T10:44:18;24.20;99.90
23087;DHT22;11712;51.134;4.156;2022-07-23T10:47:02;24.30;99.90
23087;DHT22;11712;51.134;4.156;2022-07-23T10:49:34;24.10;99.90
23087;DHT22;11712;51.134;4.156;2022-07-23T10:52:21;24.10;99.90
23087;DHT22;11712;51.134;4.156;2022-07-23T10:57:47;24.40;99.90
23087;DHT22;11712;51.134;4.156;2022-07-23T11:00:15;24.60;99.90
23087;DHT22;11712;51.134;4.156;2022-07-23T11:02:44;24.50;99.90
23087;DHT22;11712;51.134;4.156;2022-07-23T11:05:16;24.40;99.90
23087;DHT22;11712;51.134;4.156;2022-07-23T11:24:06;24.90;99.90
23087;DHT22;11712;51.134;4.156;2022-07-23T11:37:06;25.10;99.90
23087;DHT22;11712;51.134;4.156;2022-07-23T11:39:33;25.00;99.90
23087;DHT22;11712;51.134;4.156;2022-07-23T11:42:00;25.20;99.90
23087;DHT22;11712;51.134;4.156;2022-07-23T11:44:26;25.20;99.90
23087;DHT22;11712;51.134;4.156;2022-07-23T11:49:25;25.60;99.90
23087;DHT22;11712;51.134;4.156;2022-07-23T11:54:46;25.80;99.90
23087;DHT22;11712;51.134;4.156;2022-07-23T11:57:12;25.50;99.90
23087;DHT22;11712;51.134;4.156;2022-07-23T11:59:38;25.60;99.90
23087;DHT22;11712;51.134;4.156;2022-07-23T12:02:06;26.00;99.90
23087;DHT22;11712;51.134;4.156;2022-07-23T12:04:46;25.90;99.90
23087;DHT22;11712;51.134;4.156;2022-07-23T12:10:03;25.70;99.90
23087;DHT22;11712;51.134;4.156;2022-07-23T12:12:39;25.90;99.90
23087;DHT22;11712;51.134;4.156;2022-07-23T12:15:06;26.20;99.90
23087;DHT22;11712;51.134;4.156;2022-07-23T12:17:35;26.10;99.90
23087;DHT22;11712;51.134;4.156;2022-07-23T12:20:04;26.00;99.90
23087;DHT22;11712;51.134;4.156;2022-07-23T12:22:39;26.20;99.90
23087;DHT22;11712;51.134;4.156;2022-07-23T12:25:12;26.40;99.90
23087;DHT22;11712;51.134;4.156;2022-07-23T12:27:38;26.50;99.90
23087;DHT22;11712;51.134;4.156;2022-07-23T12:30:20;26.70;99.90
23087;DHT22;11712;51.134;4.156;2022-07-23T12:32:48;26.80;99.90
23087;DHT22;11712;51.134;4.156;2022-07-23T12:35:15;26.80;99.90
23087;DHT22;11712;51.134;4.156;2022-07-23T12:37:42;26.40;99.90
23087;DHT22;11712;51.134;4.156;2022-07-23T12:43:07;26.10;99.90
23087;DHT22;11712;51.134;4.156;2022-07-23T12:48:36;26.80;99.90
23087;DHT22;11712;51.134;4.156;2022-07-23T12:51:16;26.80;99.90
23087;DHT22;11712;51.134;4.156;2022-07-23T12:53:44;26.80;99.90
23087;DHT22;11712;51.134;4.156;2022-07-23T12:56:13;26.50;99.90
23087;DHT22;11712;51.134;4.156;2022-07-23T13:01:06;27.10;99.90
23087;DHT22;11712;51.134;4.156;2022-07-23T13:03:38;27.40;99.90
23087;DHT22;11712;51.134;4.156;2022-07-23T13:06:06;27.50;99.90
23087;DHT22;11712;51.134;4.156;2022-07-23T13:08:33;27.30;99.90
23087;DHT22;11712;51.134;4.156;2022-07-23T13:11:00;27.30;99.90
23087;DHT22;11712;51.134;4.156;2022-07-23T13:13:27;27.60;99.90
23087;DHT22;11712;51.134;4.156;2022-07-23T13:15:54;27.90;99.90
23087;DHT22;11712;51.134;4.156;2022-07-23T13:18:21;28.10;99.90
23087;DHT22;11712;51.134;4.156;2022-07-23T13:20:49;28.20;99.90
23087;DHT22;11712;51.134;4.156;2022-07-23T13:23:15;28.20;99.90
23087;DHT22;11712;51.134;4.156;2022-07-23T13:25:41;28.30;99.90
23087;DHT22;11712;51.134;4.156;2022-07-23T13:28:07;28.40;99.90
23087;DHT22;11712;51.134;4.156;2022-07-23T13:30:33;28.60;99.90
23087;DHT22;11712;51.134;4.156;2022-07-23T13:33:00;28.70;99.90
23087;DHT22;11712;51.134;4.156;2022-07-23T13:35:26;28.50;99.90
23087;DHT22;11712;51.134;4.156;2022-07-23T13:37:52;28.40;99.90
23087;DHT22;11712;51.134;4.156;2022-07-23T13:40:17;28.30;99.90
23087;DHT22;11712;51.134;4.156;2022-07-23T13:42:43;28.50;99.90
23087;DHT22;11712;51.134;4.156;2022-07-23T13:45:09;28.60;99.90
23087;DHT22;11712;51.134;4.156;2022-07-23T13:47:34;29.10;99.90
23087;DHT22;11712;51.134;4.156;2022-07-23T13:50:00;29.20;99.90
23087;DHT22;11712;51.134;4.156;2022-07-23T13:52:26;29.00;99.90
23087;DHT22;11712;51.134;4.156;2022-07-23T13:54:52;28.80;99.90
23087;DHT22;11712;51.134;4.156;2022-07-23T13:57:18;29.00;99.90
23087;DHT22;11712;51.134;4.156;2022-07-23T13:59:43;28.90;99.90
23087;DHT22;11712;51.134;4.156;2022-07-23T14:02:09;28.80;99.90
23087;DHT22;11712;51.134;4.156;2022-07-23T14:04:35;28.80;99.90
23087;DHT22;11712;51.134;4.156;2022-07-23T14:07:01;28.80;99.90
23087;DHT22;11712;51.134;4.156;2022-07-23T14:09:26;29.00;99.90
23087;DHT22;11712;51.134;4.156;2022-07-23T14:11:53;29.40;99.90
23087;DHT22;11712;51.134;4.156;2022-07-23T14:14:18;29.90;99.90
23087;DHT22;11712;51.134;4.156;2022-07-23T14:16:44;30.20;99.90
23087;DHT22;11712;51.134;4.156;2022-07-23T14:19:10;30.50;99.90
23087;DHT22;11712;51.134;4.156;2022-07-23T14:21:37;30.60;99.90
23087;DHT22;11712;51.134;4.156;2022-07-23T14:24:03;30.80;99.90
23087;DHT22;11712;51.134;4.156;2022-07-23T14:26:29;31.60;99.90
23087;DHT22;11712;51.134;4.156;2022-07-23T14:28:55;32.30;99.90
23087;DHT22;11712;51.134;4.156;2022-07-23T14:31:21;31.90;99.90
23087;DHT22;11712;51.134;4.156;2022-07-23T14:33:48;31.50;99.90
23087;DHT22;11712;51.134;4.156;2022-07-23T14:36:13;31.20;99.90
23087;DHT22;11712;51.134;4.156;2022-07-23T14:38:39;31.30;99.90
23087;DHT22;11712;51.134;4.156;2022-07-23T14:41:05;32.10;99.90
23087;DHT22;11712;51.134;4.156;2022-07-23T14:43:34;32.30;99.90
23087;DHT22;11712;51.134;4.156;2022-07-23T14:46:00;32.00;99.90
23087;DHT22;11712;51.134;4.156;2022-07-23T14:48:26;31.50;99.80
23087;DHT22;11712;51.134;4.156;2022-07-23T14:50:51;30.50;99.90
23087;DHT22;11712;51.134;4.156;2022-07-23T14:53:17;29.90;99.90
23087;DHT22;11712;51.134;4.156;2022-07-23T14:55:43;29.50;99.90
23087;DHT22;11712;51.134;4.156;2022-07-23T14:58:09;29.80;99.90
23087;DHT22;11712;51.134;4.156;2022-07-23T15:00:35;30.80;99.90
23087;DHT22;11712;51.134;4.156;2022-07-23T15:03:00;31.60;99.90
23087;DHT22;11712;51.134;4.156;2022-07-23T15:05:26;33.10;99.50
23087;DHT22;11712;51.134;4.156;2022-07-23T15:07:53;33.50;99.90
23087;DHT22;11712;51.134;4.156;2022-07-23T15:10:18;34.50;98.00
23087;DHT22;11712;51.134;4.156;2022-07-23T15:12:44;34.50;97.70
23087;DHT22;11712;51.134;4.156;2022-07-23T15:15:10;34.60;96.40
23087;DHT22;11712;51.134;4.156;2022-07-23T15:17:35;34.10;96.70
23087;DHT22;11712;51.134;4.156;2022-07-23T15:20:01;34.10;95.60
23087;DHT22;11712;51.134;4.156;2022-07-23T15:22:27;34.70;95.70
23087;DHT22;11712;51.134;4.156;2022-07-23T15:24:53;35.00;95.80
23087;DHT22;11712;51.134;4.156;2022-07-23T15:27:19;34.80;95.10
23087;DHT22;11712;51.134;4.156;2022-07-23T15:29:45;35.40;94.40
23087;DHT22;11712;51.134;4.156;2022-07-23T15:32:10;35.90;92.70
23087;DHT22;11712;51.134;4.156;2022-07-23T15:34:38;35.70;92.70
23087;DHT22;11712;51.134;4.156;2022-07-23T15:37:04;35.00;94.50
23087;DHT22;11712;51.134;4.156;2022-07-23T15:39:33;35.30;94.00
23087;DHT22;11712;51.134;4.156;2022-07-23T15:42:00;34.70;93.00
23087;DHT22;11712;51.134;4.156;2022-07-23T15:44:26;35.70;91.80
23087;DHT22;11712;51.134;4.156;2022-07-23T15:46:52;36.10;92.20
23087;DHT22;11712;51.134;4.156;2022-07-23T15:49:18;34.80;92.80
23087;DHT22;11712;51.134;4.156;2022-07-23T15:51:43;34.60;92.40
23087;DHT22;11712;51.134;4.156;2022-07-23T15:54:09;34.70;93.20
23087;DHT22;11712;51.134;4.156;2022-07-23T15:56:35;34.90;92.60
23087;DHT22;11712;51.134;4.156;2022-07-23T15:59:00;33.90;93.80
23087;DHT22;11712;51.134;4.156;2022-07-23T16:01:26;34.50;93.30
23087;DHT22;11712;51.134;4.156;2022-07-23T16:03:55;35.00;92.20
23087;DHT22;11712;51.134;4.156;2022-07-23T16:06:21;34.90;91.60
23087;DHT22;11712;51.134;4.156;2022-07-23T16:08:47;34.30;91.70
23087;DHT22;11712;51.134;4.156;2022-07-23T16:11:13;34.80;92.20
23087;DHT22;11712;51.134;4.156;2022-07-23T16:13:39;34.70;91.40
23087;DHT22;11712;51.134;4.156;2022-07-23T16:16:05;35.60;91.10
23087;DHT22;11712;51.134;4.156;2022-07-23T16:18:31;36.10;90.20
23087;DHT22;11712;51.134;4.156;2022-07-23T16:20:57;35.50;90.50